sensor_id;sensor_type;location;lat;lon;timestamp;P1;durP1;ratioP1;P2;durP2;ratioP2
16634;SDS011;8431;52.458;9.998;2022-12-18T00:01:22;9.93;;;7.20;;
16634;SDS011;8431;52.458;9.998;2022-12-18T00:03:57;10.27;;;7.05;;
16634;SDS011;8431;52.458;9.998;2022-12-18T00:06:24;9.02;;;6.55;;
16634;SDS011;8431;52.458;9.998;2022-12-18T00:08:54;10.82;;;7.40;;
16634;SDS011;8431;52.458;9.998;2022-12-18T00:11:23;13.35;;;7.70;;
16634;SDS011;8431;52.458;9.998;2022-12-18T00:13:52;12.23;;;7.60;;
16634;SDS011;8431;52.458;9.998;2022-12-18T00:16:21;13.93;;;7.50;;
16634;SDS011;8431;52.458;9.998;2022-12-18T00:18:50;9.88;;;6.68;;
16634;SDS011;8431;52.458;9.998;2022-12-18T00:21:19;11.40;;;7.72;;
16634;SDS011;8431;52.458;9.998;2022-12-18T00:23:46;11.85;;;7.50;;
16634;SDS011;8431;52.458;9.998;2022-12-18T00:26:18;9.75;;;7.25;;
16634;SDS011;8431;52.458;9.998;2022-12-18T00:28:46;12.73;;;7.43;;
16634;SDS011;8431;52.458;9.998;2022-12-18T00:31:14;9.43;;;6.90;;
16634;SDS011;8431;52.458;9.998;2022-12-18T00:33:43;10.57;;;6.95;;
16634;SDS011;8431;52.458;9.998;2022-12-18T00:36:12;9.88;;;6.50;;
16634;SDS011;8431;52.458;9.998;2022-12-18T00:38:52;10.60;;;7.00;;
16634;SDS011;8431;52.458;9.998;2022-12-18T00:41:21;10.55;;;6.50;;
16634;SDS011;8431;52.458;9.998;2022-12-18T00:44:09;13.77;;;7.32;;
16634;SDS011;8431;52.458;9.998;2022-12-18T00:46:38;8.38;;;6.45;;
16634;SDS011;8431;52.458;9.998;2022-12-18T00:49:05;12.57;;;6.55;;
16634;SDS011;8431;52.458;9.998;2022-12-18T00:51:32;8.55;;;6.43;;
16634;SDS011;8431;52.458;9.998;2022-12-18T00:53:59;10.10;;;6.93;;
16634;SDS011;8431;52.458;9.998;2022-12-18T00:56:28;9.23;;;6.70;;
16634;SDS011;8431;52.458;9.998;2022-12-18T00:58:55;11.98;;;6.28;;
16634;SDS011;8431;52.458;9.998;2022-12-18T01:01:22;8.93;;;6.28;;
16634;SDS011;8431;52.458;9.998;2022-12-18T01:03:49;9.45;;;6.20;;
16634;SDS011;8431;52.458;9.998;2022-12-18T01:06:16;8.65;;;5.88;;
16634;SDS011;8431;52.458;9.998;2022-12-18T01:08:43;8.48;;;5.93;;
16634;SDS011;8431;52.458;9.998;2022-12-18T01:11:15;10.40;;;6.28;;
16634;SDS011;8431;52.458;9.998;2022-12-18T01:13:46;9.35;;;6.63;;
16634;SDS011;8431;52.458;9.998;2022-12-18T01:16:14;8.88;;;5.40;;
16634;SDS011;8431;52.458;9.998;2022-12-18T01:18:42;9.57;;;6.28;;
16634;SDS011;8431;52.458;9.998;2022-12-18T01:21:10;11.10;;;6.68;;
16634;SDS011;8431;52.458;9.998;2022-12-18T01:23:39;14.90;;;6.82;;
16634;SDS011;8431;52.458;9.998;2022-12-18T01:26:12;9.48;;;6.32;;
16634;SDS011;8431;52.458;9.998;2022-12-18T01:28:41;9.35;;;6.38;;
16634;SDS011;8431;52.458;9.998;2022-12-18T01:31:11;10.82;;;6.00;;
16634;SDS011;8431;52.458;9.998;2022-12-18T01:33:39;9.45;;;6.13;;
16634;SDS011;8431;52.458;9.998;2022-12-18T01:36:07;9.93;;;6.20;;
16634;SDS011;8431;52.458;9.998;2022-12-18T01:38:40;7.28;;;5.63;;
16634;SDS011;8431;52.458;9.998;2022-12-18T01:41:08;6.47;;;5.20;;
16634;SDS011;8431;52.458;9.998;2022-12-18T01:43:42;8.77;;;6.10;;
16634;SDS011;8431;52.458;9.998;2022-12-18T01:46:12;8.52;;;6.22;;
16634;SDS011;8431;52.458;9.998;2022-12-18T01:48:39;8.13;;;6.05;;
16634;SDS011;8431;52.458;9.998;2022-12-18T01:51:07;10.63;;;5.72;;
16634;SDS011;8431;52.458;9.998;2022-12-18T01:53:37;8.00;;;5.95;;
16634;SDS011;8431;52.458;9.998;2022-12-18T01:56:06;9.82;;;5.35;;
16634;SDS011;8431;52.458;9.998;2022-12-18T01:58:35;7.13;;;5.10;;
16634;SDS011;8431;52.458;9.998;2022-12-18T02:01:07;9.38;;;6.07;;
16634;SDS011;8431;52.458;9.998;2022-12-18T02:03:36;8.48;;;5.88;;
16634;SDS011;8431;52.458;9.998;2022-12-18T02:06:06;6.90;;;5.15;;
16634;SDS011;8431;52.458;9.998;2022-12-18T02:08:40;8.82;;;5.65;;
16634;SDS011;8431;52.458;9.998;2022-12-18T02:11:18;9.32;;;5.95;;
16634;SDS011;8431;52.458;9.998;2022-12-18T02:14:00;9.13;;;5.80;;
16634;SDS011;8431;52.458;9.998;2022-12-18T02:16:37;8.90;;;5.53;;
16634;SDS011;8431;52.458;9.998;2022-12-18T02:19:13;9.35;;;5.13;;
16634;SDS011;8431;52.458;9.998;2022-12-18T02:21:50;7.63;;;5.47;;
16634;SDS011;8431;52.458;9.998;2022-12-18T02:24:27;6.43;;;5.22;;
16634;SDS011;8431;52.458;9.998;2022-12-18T02:27:03;8.93;;;5.32;;
16634;SDS011;8431;52.458;9.998;2022-12-18T02:29:34;8.05;;;5.35;;
16634;SDS011;8431;52.458;9.998;2022-12-18T02:32:04;8.25;;;5.45;;
16634;SDS011;8431;52.458;9.998;2022-12-18T02:34:36;9.75;;;5.82;;
16634;SDS011;8431;52.458;9.998;2022-12-18T02:37:14;6.63;;;5.40;;
16634;SDS011;8431;52.458;9.998;2022-12-18T02:39:43;9.73;;;5.60;;
16634;SDS011;8431;52.458;9.998;2022-12-18T02:42:14;7.65;;;5.43;;
16634;SDS011;8431;52.458;9.998;2022-12-18T02:44:43;6.93;;;5.85;;
16634;SDS011;8431;52.458;9.998;2022-12-18T02:47:13;7.30;;;5.28;;
16634;SDS011;8431;52.458;9.998;2022-12-18T02:49:44;7.78;;;5.47;;
16634;SDS011;8431;52.458;9.998;2022-12-18T02:52:22;6.72;;;4.97;;
16634;SDS011;8431;52.458;9.998;2022-12-18T02:54:55;9.82;;;5.70;;
16634;SDS011;8431;52.458;9.998;2022-12-18T02:57:36;8.57;;;5.22;;
16634;SDS011;8431;52.458;9.998;2022-12-18T03:00:08;6.47;;;4.75;;
16634;SDS011;8431;52.458;9.998;2022-12-18T03:02:39;7.05;;;4.90;;
16634;SDS011;8431;52.458;9.998;2022-12-18T03:05:13;8.57;;;5.43;;
16634;SDS011;8431;52.458;9.998;2022-12-18T03:07:44;7.07;;;5.43;;
16634;SDS011;8431;52.458;9.998;2022-12-18T03:10:16;11.40;;;5.50;;
16634;SDS011;8431;52.458;9.998;2022-12-18T03:12:50;6.60;;;5.47;;
16634;SDS011;8431;52.458;9.998;2022-12-18T03:15:21;7.63;;;5.15;;
16634;SDS011;8431;52.458;9.998;2022-12-18T03:17:52;9.00;;;6.25;;
16634;SDS011;8431;52.458;9.998;2022-12-18T03:20:23;9.13;;;5.13;;
16634;SDS011;8431;52.458;9.998;2022-12-18T03:22:54;7.90;;;5.03;;
16634;SDS011;8431;52.458;9.998;2022-12-18T03:25:27;8.48;;;5.22;;
16634;SDS011;8431;52.458;9.998;2022-12-18T03:27:59;6.90;;;5.15;;
16634;SDS011;8431;52.458;9.998;2022-12-18T03:30:29;6.72;;;4.93;;
16634;SDS011;8431;52.458;9.998;2022-12-18T03:33:01;9.35;;;5.20;;
16634;SDS011;8431;52.458;9.998;2022-12-18T03:35:33;6.40;;;5.43;;
16634;SDS011;8431;52.458;9.998;2022-12-18T03:38:04;6.88;;;5.32;;
16634;SDS011;8431;52.458;9.998;2022-12-18T03:40:34;6.53;;;5.28;;
16634;SDS011;8431;52.458;9.998;2022-12-18T03:43:09;8.23;;;5.50;;
16634;SDS011;8431;52.458;9.998;2022-12-18T03:45:43;6.82;;;5.35;;
16634;SDS011;8431;52.458;9.998;2022-12-18T03:48:19;6.45;;;4.63;;
16634;SDS011;8431;52.458;9.998;2022-12-18T03:50:54;7.10;;;5.30;;
16634;SDS011;8431;52.458;9.998;2022-12-18T03:53:27;6.47;;;5.15;;
16634;SDS011;8431;52.458;9.998;2022-12-18T03:56:00;6.25;;;5.45;;
16634;SDS011;8431;52.458;9.998;2022-12-18T03:58:31;6.05;;;5.13;;
16634;SDS011;8431;52.458;9.998;2022-12-18T04:01:02;8.13;;;5.13;;
16634;SDS011;8431;52.458;9.998;2022-12-18T04:03:33;6.75;;;4.95;;
16634;SDS011;8431;52.458;9.998;2022-12-18T04:06:02;10.13;;;5.22;;
16634;SDS011;8431;52.458;9.998;2022-12-18T04:08:31;7.95;;;5.53;;
16634;SDS011;8431;52.458;9.998;2022-12-18T04:10:59;6.93;;;5.18;;
16634;SDS011;8431;52.458;9.998;2022-12-18T04:13:27;9.38;;;5.30;;
16634;SDS011;8431;52.458;9.998;2022-12-18T04:15:57;7.88;;;4.93;;
16634;SDS011;8431;52.458;9.998;2022-12-18T04:18:24;6.70;;;5.22;;
16634;SDS011;8431;52.458;9.998;2022-12-18T04:20:51;8.57;;;5.53;;
16634;SDS011;8431;52.458;9.998;2022-12-18T04:23:18;7.78;;;5.05;;
16634;SDS011;8431;52.458;9.998;2022-12-18T04:25:46;5.00;;;4.50;;
16634;SDS011;8431;52.458;9.998;2022-12-18T04:28:13;6.43;;;5.22;;
16634;SDS011;8431;52.458;9.998;2022-12-18T04:30:40;9.15;;;5.55;;
16634;SDS011;8431;52.458;9.998;2022-12-18T04:33:09;5.90;;;4.75;;
16634;SDS011;8431;52.458;9.998;2022-12-18T04:35:38;6.60;;;5.45;;
16634;SDS011;8431;52.458;9.998;2022-12-18T04:38:06;8.27;;;5.53;;
16634;SDS011;8431;52.458;9.998;2022-12-18T04:40:34;9.48;;;5.85;;
16634;SDS011;8431;52.458;9.998;2022-12-18T04:43:01;8.73;;;5.40;;
16634;SDS011;8431;52.458;9.998;2022-12-18T04:45:29;8.35;;;5.20;;
16634;SDS011;8431;52.458;9.998;2022-12-18T04:47:56;6.95;;;5.18;;
16634;SDS011;8431;52.458;9.998;2022-12-18T04:50:25;8.02;;;5.45;;
16634;SDS011;8431;52.458;9.998;2022-12-18T04:52:52;8.23;;;5.28;;
16634;SDS011;8431;52.458;9.998;2022-12-18T04:55:19;6.85;;;5.40;;
16634;SDS011;8431;52.458;9.998;2022-12-18T04:57:46;7.25;;;5.50;;
16634;SDS011;8431;52.458;9.998;2022-12-18T05:00:14;7.00;;;5.07;;
16634;SDS011;8431;52.458;9.998;2022-12-18T05:02:41;7.32;;;5.45;;
16634;SDS011;8431;52.458;9.998;2022-12-18T05:05:08;8.02;;;5.13;;
16634;SDS011;8431;52.458;9.998;2022-12-18T05:07:37;6.10;;;4.97;;
16634;SDS011;8431;52.458;9.998;2022-12-18T05:10:04;7.45;;;5.30;;
16634;SDS011;8431;52.458;9.998;2022-12-18T05:12:33;7.55;;;5.70;;
16634;SDS011;8431;52.458;9.998;2022-12-18T05:15:20;6.85;;;4.97;;
16634;SDS011;8431;52.458;9.998;2022-12-18T05:17:47;9.10;;;5.45;;
16634;SDS011;8431;52.458;9.998;2022-12-18T05:20:14;9.10;;;5.78;;
16634;SDS011;8431;52.458;9.998;2022-12-18T05:22:44;8.02;;;5.60;;
16634;SDS011;8431;52.458;9.998;2022-12-18T05:25:11;6.80;;;5.07;;
16634;SDS011;8431;52.458;9.998;2022-12-18T05:27:38;8.40;;;5.65;;
16634;SDS011;8431;52.458;9.998;2022-12-18T05:30:06;7.20;;;5.13;;
16634;SDS011;8431;52.458;9.998;2022-12-18T05:32:34;7.95;;;5.10;;
16634;SDS011;8431;52.458;9.998;2022-12-18T05:35:01;6.50;;;4.72;;
16634;SDS011;8431;52.458;9.998;2022-12-18T05:37:28;7.53;;;5.28;;
16634;SDS011;8431;52.458;9.998;2022-12-18T05:39:56;8.02;;;5.45;;
16634;SDS011;8431;52.458;9.998;2022-12-18T05:42:23;7.32;;;5.25;;
16634;SDS011;8431;52.458;9.998;2022-12-18T05:44:50;7.85;;;5.03;;
16634;SDS011;8431;52.458;9.998;2022-12-18T05:47:17;8.45;;;5.85;;
16634;SDS011;8431;52.458;9.998;2022-12-18T05:49:44;7.68;;;5.70;;
16634;SDS011;8431;52.458;9.998;2022-12-18T05:52:11;7.35;;;5.80;;
16634;SDS011;8431;52.458;9.998;2022-12-18T05:54:38;8.55;;;5.78;;
16634;SDS011;8431;52.458;9.998;2022-12-18T05:57:07;7.15;;;5.85;;
16634;SDS011;8431;52.458;9.998;2022-12-18T05:59:34;7.28;;;5.63;;
16634;SDS011;8431;52.458;9.998;2022-12-18T06:02:01;7.78;;;5.45;;
16634;SDS011;8431;52.458;9.998;2022-12-18T06:04:31;7.50;;;5.05;;
16634;SDS011;8431;52.458;9.998;2022-12-18T06:06:58;7.22;;;5.20;;
16634;SDS011;8431;52.458;9.998;2022-12-18T06:09:25;7.43;;;5.50;;
16634;SDS011;8431;52.458;9.998;2022-12-18T06:11:52;9.73;;;5.47;;
16634;SDS011;8431;52.458;9.998;2022-12-18T06:14:20;7.07;;;5.47;;
16634;SDS011;8431;52.458;9.998;2022-12-18T06:16:47;8.23;;;5.68;;
16634;SDS011;8431;52.458;9.998;2022-12-18T06:19:16;6.15;;;5.18;;
16634;SDS011;8431;52.458;9.998;2022-12-18T06:21:43;10.27;;;5.47;;
16634;SDS011;8431;52.458;9.998;2022-12-18T06:24:10;9.23;;;5.47;;
16634;SDS011;8431;52.458;9.998;2022-12-18T06:26:38;8.02;;;5.00;;
16634;SDS011;8431;52.458;9.998;2022-12-18T06:29:05;7.35;;;4.97;;
16634;SDS011;8431;52.458;9.998;2022-12-18T06:31:34;6.55;;;4.90;;
16634;SDS011;8431;52.458;9.998;2022-12-18T06:34:01;10.95;;;6.25;;
16634;SDS011;8431;52.458;9.998;2022-12-18T06:36:29;7.03;;;5.13;;
16634;SDS011;8431;52.458;9.998;2022-12-18T06:38:56;6.93;;;5.47;;
16634;SDS011;8431;52.458;9.998;2022-12-18T06:41:24;7.75;;;5.10;;
16634;SDS011;8431;52.458;9.998;2022-12-18T06:43:50;6.78;;;5.30;;
16634;SDS011;8431;52.458;9.998;2022-12-18T06:46:17;6.95;;;5.05;;
16634;SDS011;8431;52.458;9.998;2022-12-18T06:48:47;7.68;;;4.88;;
16634;SDS011;8431;52.458;9.998;2022-12-18T06:51:16;6.90;;;4.95;;
16634;SDS011;8431;52.458;9.998;2022-12-18T06:53:44;7.57;;;5.30;;
16634;SDS011;8431;52.458;9.998;2022-12-18T06:56:11;7.40;;;5.45;;
16634;SDS011;8431;52.458;9.998;2022-12-18T06:58:38;10.80;;;6.45;;
16634;SDS011;8431;52.458;9.998;2022-12-18T07:01:06;7.82;;;6.03;;
16634;SDS011;8431;52.458;9.998;2022-12-18T07:03:35;7.63;;;5.70;;
16634;SDS011;8431;52.458;9.998;2022-12-18T07:06:03;9.85;;;7.38;;
16634;SDS011;8431;52.458;9.998;2022-12-18T07:08:31;8.55;;;6.68;;
16634;SDS011;8431;52.458;9.998;2022-12-18T07:10:58;12.90;;;8.57;;
16634;SDS011;8431;52.458;9.998;2022-12-18T07:13:25;16.23;;;9.25;;
16634;SDS011;8431;52.458;9.998;2022-12-18T07:15:52;11.32;;;8.32;;
16634;SDS011;8431;52.458;9.998;2022-12-18T07:18:19;14.07;;;8.07;;
16634;SDS011;8431;52.458;9.998;2022-12-18T07:20:46;13.05;;;8.45;;
16634;SDS011;8431;52.458;9.998;2022-12-18T07:23:14;11.93;;;7.72;;
16634;SDS011;8431;52.458;9.998;2022-12-18T07:25:41;11.63;;;7.95;;
16634;SDS011;8431;52.458;9.998;2022-12-18T07:28:08;13.30;;;8.45;;
16634;SDS011;8431;52.458;9.998;2022-12-18T07:30:37;13.23;;;7.93;;
16634;SDS011;8431;52.458;9.998;2022-12-18T07:33:04;11.23;;;7.78;;
16634;SDS011;8431;52.458;9.998;2022-12-18T07:35:32;11.50;;;7.03;;
16634;SDS011;8431;52.458;9.998;2022-12-18T07:37:59;9.85;;;6.88;;
16634;SDS011;8431;52.458;9.998;2022-12-18T07:40:27;9.20;;;6.60;;
16634;SDS011;8431;52.458;9.998;2022-12-18T07:42:54;11.23;;;6.85;;
16634;SDS011;8431;52.458;9.998;2022-12-18T07:45:21;7.32;;;6.00;;
16634;SDS011;8431;52.458;9.998;2022-12-18T07:47:48;7.80;;;5.10;;
16634;SDS011;8431;52.458;9.998;2022-12-18T07:50:15;11.13;;;5.78;;
16634;SDS011;8431;52.458;9.998;2022-12-18T07:52:42;8.98;;;5.30;;
16634;SDS011;8431;52.458;9.998;2022-12-18T07:55:09;8.82;;;6.32;;
16634;SDS011;8431;52.458;9.998;2022-12-18T07:57:38;8.88;;;5.93;;
16634;SDS011;8431;52.458;9.998;2022-12-18T08:00:05;9.27;;;5.43;;
16634;SDS011;8431;52.458;9.998;2022-12-18T08:02:33;7.88;;;5.50;;
16634;SDS011;8431;52.458;9.998;2022-12-18T08:05:00;9.05;;;5.60;;
16634;SDS011;8431;52.458;9.998;2022-12-18T08:07:27;11.68;;;6.47;;
16634;SDS011;8431;52.458;9.998;2022-12-18T08:09:54;11.18;;;6.47;;
16634;SDS011;8431;52.458;9.998;2022-12-18T08:12:21;8.15;;;5.95;;
16634;SDS011;8431;52.458;9.998;2022-12-18T08:14:49;7.80;;;5.80;;
16634;SDS011;8431;52.458;9.998;2022-12-18T08:17:16;9.20;;;5.50;;
16634;SDS011;8431;52.458;9.998;2022-12-18T08:19:45;9.43;;;6.20;;
16634;SDS011;8431;52.458;9.998;2022-12-18T08:22:12;9.90;;;6.10;;
16634;SDS011;8431;52.458;9.998;2022-12-18T08:24:39;9.93;;;6.93;;
16634;SDS011;8431;52.458;9.998;2022-12-18T08:27:06;10.05;;;7.05;;
16634;SDS011;8431;52.458;9.998;2022-12-18T08:29:33;10.20;;;6.97;;
16634;SDS011;8431;52.458;9.998;2022-12-18T08:32:01;10.90;;;7.82;;
16634;SDS011;8431;52.458;9.998;2022-12-18T08:34:28;11.30;;;7.45;;
16634;SDS011;8431;52.458;9.998;2022-12-18T08:36:55;15.10;;;7.82;;
16634;SDS011;8431;52.458;9.998;2022-12-18T08:39:22;11.70;;;6.90;;
16634;SDS011;8431;52.458;9.998;2022-12-18T08:41:49;9.55;;;6.90;;
16634;SDS011;8431;52.458;9.998;2022-12-18T08:44:32;13.23;;;8.15;;
16634;SDS011;8431;52.458;9.998;2022-12-18T08:47:09;10.65;;;7.25;;
16634;SDS011;8431;52.458;9.998;2022-12-18T08:49:36;13.48;;;8.00;;
16634;SDS011;8431;52.458;9.998;2022-12-18T08:52:03;13.90;;;7.93;;
16634;SDS011;8431;52.458;9.998;2022-12-18T08:54:30;14.05;;;8.25;;
16634;SDS011;8431;52.458;9.998;2022-12-18T08:56:57;12.20;;;8.07;;
16634;SDS011;8431;52.458;9.998;2022-12-18T08:59:24;13.25;;;7.50;;
16634;SDS011;8431;52.458;9.998;2022-12-18T09:01:53;10.48;;;8.00;;
16634;SDS011;8431;52.458;9.998;2022-12-18T09:04:21;13.70;;;8.50;;
16634;SDS011;8431;52.458;9.998;2022-12-18T09:06:48;11.27;;;8.32;;
16634;SDS011;8431;52.458;9.998;2022-12-18T09:09:16;11.27;;;8.30;;
16634;SDS011;8431;52.458;9.998;2022-12-18T09:11:43;13.40;;;8.27;;
16634;SDS011;8431;52.458;9.998;2022-12-18T09:14:10;13.55;;;8.43;;
16634;SDS011;8431;52.458;9.998;2022-12-18T09:16:37;14.32;;;7.88;;
16634;SDS011;8431;52.458;9.998;2022-12-18T09:19:04;12.63;;;7.45;;
16634;SDS011;8431;52.458;9.998;2022-12-18T09:21:37;12.00;;;8.23;;
16634;SDS011;8431;52.458;9.998;2022-12-18T09:24:05;13.65;;;7.70;;
16634;SDS011;8431;52.458;9.998;2022-12-18T09:26:32;10.48;;;7.75;;
16634;SDS011;8431;52.458;9.998;2022-12-18T09:28:59;13.95;;;8.93;;
16634;SDS011;8431;52.458;9.998;2022-12-18T09:31:26;16.30;;;9.13;;
16634;SDS011;8431;52.458;9.998;2022-12-18T09:33:54;16.20;;;9.40;;
16634;SDS011;8431;52.458;9.998;2022-12-18T09:36:21;12.27;;;8.15;;
16634;SDS011;8431;52.458;9.998;2022-12-18T09:38:50;12.88;;;8.95;;
16634;SDS011;8431;52.458;9.998;2022-12-18T09:41:23;15.60;;;9.07;;
16634;SDS011;8431;52.458;9.998;2022-12-18T09:44:10;15.13;;;10.32;;
16634;SDS011;8431;52.458;9.998;2022-12-18T09:46:49;14.73;;;9.27;;
16634;SDS011;8431;52.458;9.998;2022-12-18T09:49:27;15.30;;;9.80;;
16634;SDS011;8431;52.458;9.998;2022-12-18T09:51:59;14.00;;;9.38;;
16634;SDS011;8431;52.458;9.998;2022-12-18T09:54:31;31.42;;;15.57;;
16634;SDS011;8431;52.458;9.998;2022-12-18T09:57:02;43.40;;;20.20;;
16634;SDS011;8431;52.458;9.998;2022-12-18T09:59:30;31.33;;;16.38;;
16634;SDS011;8431;52.458;9.998;2022-12-18T10:02:02;17.92;;;11.38;;
16634;SDS011;8431;52.458;9.998;2022-12-18T10:04:39;19.20;;;11.38;;
16634;SDS011;8431;52.458;9.998;2022-12-18T10:07:07;15.70;;;9.77;;
16634;SDS011;8431;52.458;9.998;2022-12-18T10:09:44;16.92;;;11.27;;
16634;SDS011;8431;52.458;9.998;2022-12-18T10:12:21;20.73;;;12.27;;
16634;SDS011;8431;52.458;9.998;2022-12-18T10:14:53;16.35;;;10.55;;
16634;SDS011;8431;52.458;9.998;2022-12-18T10:17:26;20.05;;;10.70;;
16634;SDS011;8431;52.458;9.998;2022-12-18T10:20:03;15.80;;;10.93;;
16634;SDS011;8431;52.458;9.998;2022-12-18T10:22:41;14.48;;;10.15;;
16634;SDS011;8431;52.458;9.998;2022-12-18T10:25:20;15.20;;;10.45;;
16634;SDS011;8431;52.458;9.998;2022-12-18T10:27:51;18.60;;;10.98;;
16634;SDS011;8431;52.458;9.998;2022-12-18T10:30:21;15.68;;;11.23;;
16634;SDS011;8431;52.458;9.998;2022-12-18T10:32:49;18.70;;;12.75;;
16634;SDS011;8431;52.458;9.998;2022-12-18T10:35:18;20.45;;;13.27;;
16634;SDS011;8431;52.458;9.998;2022-12-18T10:37:59;20.25;;;12.02;;
16634;SDS011;8431;52.458;9.998;2022-12-18T10:40:29;18.02;;;11.98;;
16634;SDS011;8431;52.458;9.998;2022-12-18T10:43:04;22.38;;;15.18;;
16634;SDS011;8431;52.458;9.998;2022-12-18T10:45:32;14.43;;;10.10;;
16634;SDS011;8431;52.458;9.998;2022-12-18T10:48:00;16.23;;;10.15;;
16634;SDS011;8431;52.458;9.998;2022-12-18T10:50:28;14.93;;;10.18;;
16634;SDS011;8431;52.458;9.998;2022-12-18T10:52:58;16.48;;;10.38;;
16634;SDS011;8431;52.458;9.998;2022-12-18T10:55:30;16.00;;;10.95;;
16634;SDS011;8431;52.458;9.998;2022-12-18T10:58:12;17.65;;;11.18;;
16634;SDS011;8431;52.458;9.998;2022-12-18T11:00:44;18.88;;;11.68;;
16634;SDS011;8431;52.458;9.998;2022-12-18T11:06:03;17.52;;;11.05;;
16634;SDS011;8431;52.458;9.998;2022-12-18T11:08:32;14.90;;;10.45;;
16634;SDS011;8431;52.458;9.998;2022-12-18T11:11:01;16.75;;;11.10;;
16634;SDS011;8431;52.458;9.998;2022-12-18T11:13:29;16.50;;;11.25;;
16634;SDS011;8431;52.458;9.998;2022-12-18T11:15:57;19.33;;;11.82;;
16634;SDS011;8431;52.458;9.998;2022-12-18T11:18:25;15.68;;;11.70;;
16634;SDS011;8431;52.458;9.998;2022-12-18T11:20:54;16.63;;;11.40;;
16634;SDS011;8431;52.458;9.998;2022-12-18T11:23:23;17.33;;;11.55;;
16634;SDS011;8431;52.458;9.998;2022-12-18T11:25:59;17.38;;;11.43;;
16634;SDS011;8431;52.458;9.998;2022-12-18T11:28:35;15.98;;;11.25;;
16634;SDS011;8431;52.458;9.998;2022-12-18T11:31:20;17.20;;;11.90;;
16634;SDS011;8431;52.458;9.998;2022-12-18T11:33:51;18.17;;;11.50;;
16634;SDS011;8431;52.458;9.998;2022-12-18T11:36:25;18.85;;;11.63;;
16634;SDS011;8431;52.458;9.998;2022-12-18T11:38:57;17.50;;;10.90;;
16634;SDS011;8431;52.458;9.998;2022-12-18T11:41:28;14.60;;;10.15;;
16634;SDS011;8431;52.458;9.998;2022-12-18T11:44:21;17.77;;;10.95;;
16634;SDS011;8431;52.458;9.998;2022-12-18T11:46:52;14.73;;;10.43;;
16634;SDS011;8431;52.458;9.998;2022-12-18T11:49:26;16.83;;;10.98;;
16634;SDS011;8431;52.458;9.998;2022-12-18T11:52:00;16.63;;;10.93;;
16634;SDS011;8431;52.458;9.998;2022-12-18T11:54:35;18.17;;;11.50;;
16634;SDS011;8431;52.458;9.998;2022-12-18T11:57:03;14.80;;;10.73;;
16634;SDS011;8431;52.458;9.998;2022-12-18T11:59:39;15.15;;;10.07;;
16634;SDS011;8431;52.458;9.998;2022-12-18T12:02:29;18.02;;;11.27;;
16634;SDS011;8431;52.458;9.998;2022-12-18T12:08:01;16.08;;;10.15;;
16634;SDS011;8431;52.458;9.998;2022-12-18T12:10:39;14.82;;;9.88;;
16634;SDS011;8431;52.458;9.998;2022-12-18T12:13:23;12.82;;;9.90;;
16634;SDS011;8431;52.458;9.998;2022-12-18T12:16:02;12.73;;;8.68;;
16634;SDS011;8431;52.458;9.998;2022-12-18T12:18:40;12.38;;;9.48;;
16634;SDS011;8431;52.458;9.998;2022-12-18T12:21:17;12.57;;;8.80;;
16634;SDS011;8431;52.458;9.998;2022-12-18T12:23:52;14.45;;;9.43;;
16634;SDS011;8431;52.458;9.998;2022-12-18T12:26:38;12.35;;;8.73;;
16634;SDS011;8431;52.458;9.998;2022-12-18T12:29:26;14.00;;;8.95;;
16634;SDS011;8431;52.458;9.998;2022-12-18T12:32:15;13.70;;;8.38;;
16634;SDS011;8431;52.458;9.998;2022-12-18T12:34:54;13.57;;;9.18;;
16634;SDS011;8431;52.458;9.998;2022-12-18T12:37:33;14.25;;;9.90;;
16634;SDS011;8431;52.458;9.998;2022-12-18T12:40:11;14.55;;;8.80;;
16634;SDS011;8431;52.458;9.998;2022-12-18T12:42:44;16.25;;;9.55;;
16634;SDS011;8431;52.458;9.998;2022-12-18T12:45:33;12.93;;;8.93;;
16634;SDS011;8431;52.458;9.998;2022-12-18T12:48:06;14.38;;;8.55;;
16634;SDS011;8431;52.458;9.998;2022-12-18T12:50:43;12.10;;;8.10;;
16634;SDS011;8431;52.458;9.998;2022-12-18T12:53:14;12.68;;;8.35;;
16634;SDS011;8431;52.458;9.998;2022-12-18T12:55:48;14.80;;;8.63;;
16634;SDS011;8431;52.458;9.998;2022-12-18T12:58:19;11.77;;;8.35;;
16634;SDS011;8431;52.458;9.998;2022-12-18T13:00:58;12.07;;;8.63;;
16634;SDS011;8431;52.458;9.998;2022-12-18T13:03:39;12.05;;;8.55;;
16634;SDS011;8431;52.458;9.998;2022-12-18T13:06:12;14.38;;;10.63;;
16634;SDS011;8431;52.458;9.998;2022-12-18T13:08:55;14.38;;;10.48;;
16634;SDS011;8431;52.458;9.998;2022-12-18T13:11:39;14.07;;;8.95;;
16634;SDS011;8431;52.458;9.998;2022-12-18T13:14:27;12.38;;;8.63;;
16634;SDS011;8431;52.458;9.998;2022-12-18T13:17:16;12.15;;;8.65;;
16634;SDS011;8431;52.458;9.998;2022-12-18T13:20:07;15.65;;;9.18;;
16634;SDS011;8431;52.458;9.998;2022-12-18T13:22:37;12.05;;;8.35;;
16634;SDS011;8431;52.458;9.998;2022-12-18T13:28:00;11.50;;;8.73;;
16634;SDS011;8431;52.458;9.998;2022-12-18T13:36:31;15.65;;;9.30;;
16634;SDS011;8431;52.458;9.998;2022-12-18T13:39:10;13.25;;;9.85;;
16634;SDS011;8431;52.458;9.998;2022-12-18T13:41:48;13.38;;;9.15;;
16634;SDS011;8431;52.458;9.998;2022-12-18T13:44:24;14.18;;;9.52;;
16634;SDS011;8431;52.458;9.998;2022-12-18T13:47:00;14.18;;;10.05;;
16634;SDS011;8431;52.458;9.998;2022-12-18T13:49:31;17.70;;;11.20;;
16634;SDS011;8431;52.458;9.998;2022-12-18T13:52:10;14.70;;;9.35;;
16634;SDS011;8431;52.458;9.998;2022-12-18T13:54:43;14.93;;;10.00;;
16634;SDS011;8431;52.458;9.998;2022-12-18T13:57:25;14.25;;;10.18;;
16634;SDS011;8431;52.458;9.998;2022-12-18T13:59:54;15.55;;;10.30;;
16634;SDS011;8431;52.458;9.998;2022-12-18T14:02:22;22.85;;;15.13;;
16634;SDS011;8431;52.458;9.998;2022-12-18T14:04:51;17.67;;;12.05;;
16634;SDS011;8431;52.458;9.998;2022-12-18T14:07:21;32.40;;;19.02;;
16634;SDS011;8431;52.458;9.998;2022-12-18T14:09:51;23.73;;;14.27;;
16634;SDS011;8431;52.458;9.998;2022-12-18T14:12:22;20.85;;;13.30;;
16634;SDS011;8431;52.458;9.998;2022-12-18T14:15:11;19.58;;;12.82;;
16634;SDS011;8431;52.458;9.998;2022-12-18T14:17:51;18.55;;;11.35;;
16634;SDS011;8431;52.458;9.998;2022-12-18T14:20:20;15.15;;;11.52;;
16634;SDS011;8431;52.458;9.998;2022-12-18T14:22:50;16.10;;;10.32;;
16634;SDS011;8431;52.458;9.998;2022-12-18T14:25:18;16.60;;;10.90;;
16634;SDS011;8431;52.458;9.998;2022-12-18T14:27:47;19.45;;;13.55;;
16634;SDS011;8431;52.458;9.998;2022-12-18T14:30:23;19.70;;;14.05;;
16634;SDS011;8431;52.458;9.998;2022-12-18T14:32:59;19.15;;;12.40;;
16634;SDS011;8431;52.458;9.998;2022-12-18T14:35:27;17.48;;;12.13;;
16634;SDS011;8431;52.458;9.998;2022-12-18T14:38:00;16.65;;;12.50;;
16634;SDS011;8431;52.458;9.998;2022-12-18T14:40:54;18.95;;;12.55;;
16634;SDS011;8431;52.458;9.998;2022-12-18T14:43:23;17.58;;;11.85;;
16634;SDS011;8431;52.458;9.998;2022-12-18T14:45:51;21.17;;;12.88;;
16634;SDS011;8431;52.458;9.998;2022-12-18T14:48:19;17.58;;;12.27;;
16634;SDS011;8431;52.458;9.998;2022-12-18T14:50:54;18.48;;;11.57;;
16634;SDS011;8431;52.458;9.998;2022-12-18T14:53:26;18.70;;;12.45;;
16634;SDS011;8431;52.458;9.998;2022-12-18T14:56:02;15.93;;;11.95;;
16634;SDS011;8431;52.458;9.998;2022-12-18T14:58:37;16.75;;;12.15;;
16634;SDS011;8431;52.458;9.998;2022-12-18T15:01:04;18.88;;;11.85;;
16634;SDS011;8431;52.458;9.998;2022-12-18T15:03:32;18.73;;;12.25;;
16634;SDS011;8431;52.458;9.998;2022-12-18T15:08:43;18.27;;;11.75;;
16634;SDS011;8431;52.458;9.998;2022-12-18T15:11:24;18.15;;;12.80;;
16634;SDS011;8431;52.458;9.998;2022-12-18T15:13:53;19.85;;;13.43;;
16634;SDS011;8431;52.458;9.998;2022-12-18T15:16:20;17.83;;;11.68;;
16634;SDS011;8431;52.458;9.998;2022-12-18T15:18:47;20.27;;;13.70;;
16634;SDS011;8431;52.458;9.998;2022-12-18T15:21:15;19.55;;;13.02;;
16634;SDS011;8431;52.458;9.998;2022-12-18T15:23:46;17.88;;;11.88;;
16634;SDS011;8431;52.458;9.998;2022-12-18T15:26:16;17.70;;;12.20;;
16634;SDS011;8431;52.458;9.998;2022-12-18T15:28:45;16.75;;;11.80;;
16634;SDS011;8431;52.458;9.998;2022-12-18T15:31:22;18.45;;;12.02;;